Main page
METAR-TAF:

METAR-TAF

Airports :

Treviso Airport

Treviso, Italy

latitude: 45-39N, longitude: 012-11E, elevation: 18 m

Current weather observation

The report was made 31 minutes ago, at 22:20 UTC
Wind 3 kt from the Northwest
Temperature 9°C
Humidity 100%
Pressure 1014 hPa
Visibility: 2200 m
Few clouds at a height of 5100 ft
patches of fog

METAR: LIPH 212220Z AUTO 32003KT 2200 R07/1400U BCFG FEW051 09/09 Q1014

Time: 23:51 (22:51 UTC)

Forecast

The report was made 5 hours and 51 minutes ago, at 17:00 UTC
Forecast valid from 21 at 18 UTC to 22 at 18 UTC
Wind 3 kt from variable directions
Visibility: 4000 m
Broken clouds at a height of 1000 ft
mist
Becoming
from 21 at 18 UTC to 21 at 20 UTC
Visibility: 1500 m
mist
Becoming
from 21 at 22 UTC to 22 at 01 UTC
Visibility: 0500 m
fog
Becoming
from 22 at 08 UTC to 22 at 10 UTC
Visibility: 6000 m

TAF: LIPH 211700Z 2118/2218 VRB03KT 4000 BR BKN010 BECMG 2118/2120 1500 BR BECMG 2122/2201 0500 FG BECMG 2208/2210 6000

Weather observations and forecasts of more than 4000 airports (METAR and TAF reports).

The available stations are represented by yellow and red dots on the map.

Hover mouse over dot to see the name of the station.

Then click to see weather observations and forecasts.

To change the map : click on the green buttons with a black cross to zoom in, on the green button with a dash to zoom out, or on the green arrows for adjacent maps.


METAR-TAF: